sensor_id;sensor_type;location;lat;lon;timestamp;P1;durP1;ratioP1;P2;durP2;ratioP2
4434;SDS011;46552;52.150;8.428;2023-06-22T00:01:16;14.40;;;7.90;;
4434;SDS011;46552;52.150;8.428;2023-06-22T00:03:43;7.97;;;6.90;;
4434;SDS011;46552;52.150;8.428;2023-06-22T00:06:11;13.77;;;8.00;;
4434;SDS011;46552;52.150;8.428;2023-06-22T00:08:38;12.00;;;8.47;;
4434;SDS011;46552;52.150;8.428;2023-06-22T00:11:07;20.37;;;11.60;;
4434;SDS011;46552;52.150;8.428;2023-06-22T00:13:34;15.20;;;9.60;;
4434;SDS011;46552;52.150;8.428;2023-06-22T00:16:01;20.03;;;10.17;;
4434;SDS011;46552;52.150;8.428;2023-06-22T00:18:29;19.43;;;9.40;;
4434;SDS011;46552;52.150;8.428;2023-06-22T00:20:57;28.60;;;11.07;;
4434;SDS011;46552;52.150;8.428;2023-06-22T00:23:25;21.57;;;11.33;;
4434;SDS011;46552;52.150;8.428;2023-06-22T00:25:53;16.63;;;10.37;;
4434;SDS011;46552;52.150;8.428;2023-06-22T00:28:23;13.83;;;8.40;;
4434;SDS011;46552;52.150;8.428;2023-06-22T00:30:50;21.23;;;9.60;;
4434;SDS011;46552;52.150;8.428;2023-06-22T00:33:17;13.60;;;8.60;;
4434;SDS011;46552;52.150;8.428;2023-06-22T00:35:45;23.27;;;9.20;;
4434;SDS011;46552;52.150;8.428;2023-06-22T00:38:12;16.23;;;9.70;;
4434;SDS011;46552;52.150;8.428;2023-06-22T00:40:40;16.70;;;8.83;;
4434;SDS011;46552;52.150;8.428;2023-06-22T00:43:09;20.87;;;9.70;;
4434;SDS011;46552;52.150;8.428;2023-06-22T00:45:37;20.63;;;9.70;;
4434;SDS011;46552;52.150;8.428;2023-06-22T00:48:05;24.03;;;10.03;;
4434;SDS011;46552;52.150;8.428;2023-06-22T00:50:33;18.27;;;10.57;;
4434;SDS011;46552;52.150;8.428;2023-06-22T00:53:01;23.33;;;11.97;;
4434;SDS011;46552;52.150;8.428;2023-06-22T00:55:33;19.23;;;11.50;;
4434;SDS011;46552;52.150;8.428;2023-06-22T00:58:01;23.33;;;11.90;;
4434;SDS011;46552;52.150;8.428;2023-06-22T01:00:33;18.90;;;10.90;;
4434;SDS011;46552;52.150;8.428;2023-06-22T01:03:02;19.33;;;11.77;;
4434;SDS011;46552;52.150;8.428;2023-06-22T01:05:29;28.57;;;11.60;;
4434;SDS011;46552;52.150;8.428;2023-06-22T01:08:11;20.00;;;10.40;;
4434;SDS011;46552;52.150;8.428;2023-06-22T01:10:48;22.73;;;10.10;;
4434;SDS011;46552;52.150;8.428;2023-06-22T01:13:27;23.43;;;12.03;;
4434;SDS011;46552;52.150;8.428;2023-06-22T01:16:00;29.17;;;12.77;;
4434;SDS011;46552;52.150;8.428;2023-06-22T01:18:34;35.27;;;12.60;;
4434;SDS011;46552;52.150;8.428;2023-06-22T01:21:04;28.53;;;11.47;;
4434;SDS011;46552;52.150;8.428;2023-06-22T01:23:38;28.47;;;11.53;;
4434;SDS011;46552;52.150;8.428;2023-06-22T01:26:33;24.13;;;11.83;;
4434;SDS011;46552;52.150;8.428;2023-06-22T01:29:06;30.97;;;11.50;;
4434;SDS011;46552;52.150;8.428;2023-06-22T01:31:37;23.37;;;12.50;;
4434;SDS011;46552;52.150;8.428;2023-06-22T01:34:06;22.10;;;12.23;;
4434;SDS011;46552;52.150;8.428;2023-06-22T01:36:34;26.83;;;12.83;;
4434;SDS011;46552;52.150;8.428;2023-06-22T01:39:01;28.23;;;13.33;;
4434;SDS011;46552;52.150;8.428;2023-06-22T01:41:32;24.83;;;12.70;;
4434;SDS011;46552;52.150;8.428;2023-06-22T01:44:01;26.57;;;14.23;;
4434;SDS011;46552;52.150;8.428;2023-06-22T01:46:32;27.30;;;12.33;;
4434;SDS011;46552;52.150;8.428;2023-06-22T01:49:01;28.43;;;11.40;;
4434;SDS011;46552;52.150;8.428;2023-06-22T01:51:29;30.33;;;11.60;;
4434;SDS011;46552;52.150;8.428;2023-06-22T01:53:57;34.50;;;12.57;;
4434;SDS011;46552;52.150;8.428;2023-06-22T01:56:25;21.67;;;11.23;;
4434;SDS011;46552;52.150;8.428;2023-06-22T01:58:55;29.13;;;13.50;;
4434;SDS011;46552;52.150;8.428;2023-06-22T02:01:30;26.70;;;13.17;;
4434;SDS011;46552;52.150;8.428;2023-06-22T02:04:03;28.03;;;13.57;;
4434;SDS011;46552;52.150;8.428;2023-06-22T02:06:33;40.27;;;14.50;;
4434;SDS011;46552;52.150;8.428;2023-06-22T02:09:06;24.83;;;13.60;;
4434;SDS011;46552;52.150;8.428;2023-06-22T02:11:36;22.90;;;14.23;;
4434;SDS011;46552;52.150;8.428;2023-06-22T02:14:05;24.10;;;15.03;;
4434;SDS011;46552;52.150;8.428;2023-06-22T02:16:35;23.40;;;13.90;;
4434;SDS011;46552;52.150;8.428;2023-06-22T02:19:03;35.03;;;14.03;;
4434;SDS011;46552;52.150;8.428;2023-06-22T02:21:31;34.93;;;15.43;;
4434;SDS011;46552;52.150;8.428;2023-06-22T02:23:59;22.13;;;14.27;;
4434;SDS011;46552;52.150;8.428;2023-06-22T02:26:26;30.33;;;15.10;;
4434;SDS011;46552;52.150;8.428;2023-06-22T02:28:54;25.80;;;14.97;;
4434;SDS011;46552;52.150;8.428;2023-06-22T02:31:21;25.97;;;13.70;;
4434;SDS011;46552;52.150;8.428;2023-06-22T02:33:56;35.40;;;15.43;;
4434;SDS011;46552;52.150;8.428;2023-06-22T02:36:24;23.13;;;15.47;;
4434;SDS011;46552;52.150;8.428;2023-06-22T02:39:07;35.27;;;16.30;;
4434;SDS011;46552;52.150;8.428;2023-06-22T02:41:34;36.30;;;15.67;;
4434;SDS011;46552;52.150;8.428;2023-06-22T02:44:01;24.67;;;14.33;;
4434;SDS011;46552;52.150;8.428;2023-06-22T02:46:29;27.20;;;13.67;;
4434;SDS011;46552;52.150;8.428;2023-06-22T02:48:57;22.67;;;13.17;;
4434;SDS011;46552;52.150;8.428;2023-06-22T02:51:26;31.57;;;14.00;;
4434;SDS011;46552;52.150;8.428;2023-06-22T02:53:53;27.57;;;14.60;;
4434;SDS011;46552;52.150;8.428;2023-06-22T02:56:22;26.07;;;14.13;;
4434;SDS011;46552;52.150;8.428;2023-06-22T02:58:50;32.10;;;15.37;;
4434;SDS011;46552;52.150;8.428;2023-06-22T03:01:17;27.17;;;14.73;;
4434;SDS011;46552;52.150;8.428;2023-06-22T03:03:48;26.03;;;15.80;;
4434;SDS011;46552;52.150;8.428;2023-06-22T03:06:17;23.37;;;15.23;;
4434;SDS011;46552;52.150;8.428;2023-06-22T03:08:48;25.93;;;16.90;;
4434;SDS011;46552;52.150;8.428;2023-06-22T03:11:15;27.13;;;16.13;;
4434;SDS011;46552;52.150;8.428;2023-06-22T03:13:43;27.33;;;17.03;;
4434;SDS011;46552;52.150;8.428;2023-06-22T03:16:11;29.50;;;15.10;;
4434;SDS011;46552;52.150;8.428;2023-06-22T03:18:38;31.70;;;15.00;;
4434;SDS011;46552;52.150;8.428;2023-06-22T03:21:06;40.37;;;15.57;;
4434;SDS011;46552;52.150;8.428;2023-06-22T03:23:35;27.87;;;15.27;;
4434;SDS011;46552;52.150;8.428;2023-06-22T03:26:02;19.97;;;14.83;;
4434;SDS011;46552;52.150;8.428;2023-06-22T03:28:29;23.43;;;15.70;;
4434;SDS011;46552;52.150;8.428;2023-06-22T03:30:57;29.17;;;16.10;;
4434;SDS011;46552;52.150;8.428;2023-06-22T03:33:25;22.67;;;14.60;;
4434;SDS011;46552;52.150;8.428;2023-06-22T03:35:53;31.97;;;16.47;;
4434;SDS011;46552;52.150;8.428;2023-06-22T03:38:20;25.20;;;15.77;;
4434;SDS011;46552;52.150;8.428;2023-06-22T03:40:49;29.13;;;15.93;;
4434;SDS011;46552;52.150;8.428;2023-06-22T03:43:16;29.53;;;16.00;;
4434;SDS011;46552;52.150;8.428;2023-06-22T03:45:44;32.73;;;16.00;;
4434;SDS011;46552;52.150;8.428;2023-06-22T03:48:11;34.60;;;17.63;;
4434;SDS011;46552;52.150;8.428;2023-06-22T03:50:38;29.73;;;16.43;;
4434;SDS011;46552;52.150;8.428;2023-06-22T03:53:06;24.63;;;16.93;;
4434;SDS011;46552;52.150;8.428;2023-06-22T03:55:33;34.20;;;17.30;;
4434;SDS011;46552;52.150;8.428;2023-06-22T03:58:02;41.63;;;17.50;;
4434;SDS011;46552;52.150;8.428;2023-06-22T04:00:30;30.00;;;16.37;;
4434;SDS011;46552;52.150;8.428;2023-06-22T04:02:58;27.63;;;16.03;;
4434;SDS011;46552;52.150;8.428;2023-06-22T04:05:25;28.73;;;17.97;;
4434;SDS011;46552;52.150;8.428;2023-06-22T04:07:53;34.13;;;16.50;;
4434;SDS011;46552;52.150;8.428;2023-06-22T04:10:20;30.03;;;17.63;;
4434;SDS011;46552;52.150;8.428;2023-06-22T04:12:47;23.90;;;16.27;;
4434;SDS011;46552;52.150;8.428;2023-06-22T04:15:16;38.53;;;16.70;;
4434;SDS011;46552;52.150;8.428;2023-06-22T04:17:43;27.73;;;15.80;;
4434;SDS011;46552;52.150;8.428;2023-06-22T04:20:11;32.77;;;15.50;;
4434;SDS011;46552;52.150;8.428;2023-06-22T04:22:38;27.83;;;15.30;;
4434;SDS011;46552;52.150;8.428;2023-06-22T04:25:06;32.97;;;15.90;;
4434;SDS011;46552;52.150;8.428;2023-06-22T04:27:33;31.20;;;17.80;;
4434;SDS011;46552;52.150;8.428;2023-06-22T04:30:02;45.13;;;18.03;;
4434;SDS011;46552;52.150;8.428;2023-06-22T04:32:31;26.00;;;17.00;;
4434;SDS011;46552;52.150;8.428;2023-06-22T04:34:58;37.97;;;18.20;;
4434;SDS011;46552;52.150;8.428;2023-06-22T04:37:26;24.30;;;17.23;;
4434;SDS011;46552;52.150;8.428;2023-06-22T04:39:53;34.63;;;18.07;;
4434;SDS011;46552;52.150;8.428;2023-06-22T04:42:21;30.23;;;15.73;;
4434;SDS011;46552;52.150;8.428;2023-06-22T04:44:48;33.77;;;18.50;;
4434;SDS011;46552;52.150;8.428;2023-06-22T04:47:16;29.13;;;16.40;;
4434;SDS011;46552;52.150;8.428;2023-06-22T04:49:45;31.53;;;17.70;;
4434;SDS011;46552;52.150;8.428;2023-06-22T04:52:13;28.50;;;17.83;;
4434;SDS011;46552;52.150;8.428;2023-06-22T04:54:42;26.83;;;18.20;;
4434;SDS011;46552;52.150;8.428;2023-06-22T04:57:12;30.57;;;17.47;;
4434;SDS011;46552;52.150;8.428;2023-06-22T04:59:40;23.97;;;16.70;;
4434;SDS011;46552;52.150;8.428;2023-06-22T05:02:09;30.17;;;17.80;;
4434;SDS011;46552;52.150;8.428;2023-06-22T05:04:37;26.53;;;17.03;;
4434;SDS011;46552;52.150;8.428;2023-06-22T05:07:07;49.77;;;18.17;;
4434;SDS011;46552;52.150;8.428;2023-06-22T05:09:35;33.07;;;17.93;;
4434;SDS011;46552;52.150;8.428;2023-06-22T05:12:02;26.33;;;17.63;;
4434;SDS011;46552;52.150;8.428;2023-06-22T05:14:30;21.60;;;15.77;;
4434;SDS011;46552;52.150;8.428;2023-06-22T05:16:57;23.40;;;15.50;;
4434;SDS011;46552;52.150;8.428;2023-06-22T05:19:28;30.70;;;17.83;;
4434;SDS011;46552;52.150;8.428;2023-06-22T05:21:59;24.30;;;16.13;;
4434;SDS011;46552;52.150;8.428;2023-06-22T05:24:29;25.20;;;17.33;;
4434;SDS011;46552;52.150;8.428;2023-06-22T05:26:56;27.47;;;18.90;;
4434;SDS011;46552;52.150;8.428;2023-06-22T05:29:23;32.10;;;18.93;;
4434;SDS011;46552;52.150;8.428;2023-06-22T05:31:52;25.83;;;17.60;;
4434;SDS011;46552;52.150;8.428;2023-06-22T05:34:19;29.63;;;17.20;;
4434;SDS011;46552;52.150;8.428;2023-06-22T05:36:46;33.13;;;17.60;;
4434;SDS011;46552;52.150;8.428;2023-06-22T05:39:14;23.10;;;15.43;;
4434;SDS011;46552;52.150;8.428;2023-06-22T05:41:42;26.67;;;16.10;;
4434;SDS011;46552;52.150;8.428;2023-06-22T05:44:11;22.40;;;15.50;;
4434;SDS011;46552;52.150;8.428;2023-06-22T05:46:40;22.13;;;15.80;;
4434;SDS011;46552;52.150;8.428;2023-06-22T05:49:09;21.57;;;16.53;;
4434;SDS011;46552;52.150;8.428;2023-06-22T05:51:36;22.20;;;15.93;;
4434;SDS011;46552;52.150;8.428;2023-06-22T05:54:04;26.30;;;17.00;;
4434;SDS011;46552;52.150;8.428;2023-06-22T05:56:31;26.83;;;16.67;;
4434;SDS011;46552;52.150;8.428;2023-06-22T05:59:00;23.20;;;15.30;;
4434;SDS011;46552;52.150;8.428;2023-06-22T06:01:27;21.67;;;16.20;;
4434;SDS011;46552;52.150;8.428;2023-06-22T06:03:56;20.83;;;15.27;;
4434;SDS011;46552;52.150;8.428;2023-06-22T06:06:23;21.13;;;14.17;;
4434;SDS011;46552;52.150;8.428;2023-06-22T06:08:53;25.00;;;16.00;;
4434;SDS011;46552;52.150;8.428;2023-06-22T06:11:21;21.47;;;15.73;;
4434;SDS011;46552;52.150;8.428;2023-06-22T06:13:48;27.53;;;16.97;;
4434;SDS011;46552;52.150;8.428;2023-06-22T06:16:17;24.67;;;16.83;;
4434;SDS011;46552;52.150;8.428;2023-06-22T06:18:44;22.30;;;16.63;;
4434;SDS011;46552;52.150;8.428;2023-06-22T06:21:11;27.70;;;19.40;;
4434;SDS011;46552;52.150;8.428;2023-06-22T06:23:39;20.67;;;16.37;;
4434;SDS011;46552;52.150;8.428;2023-06-22T06:26:07;20.37;;;14.87;;
4434;SDS011;46552;52.150;8.428;2023-06-22T06:28:34;25.73;;;16.30;;
4434;SDS011;46552;52.150;8.428;2023-06-22T06:31:02;24.57;;;16.60;;
4434;SDS011;46552;52.150;8.428;2023-06-22T06:33:33;20.40;;;16.27;;
4434;SDS011;46552;52.150;8.428;2023-06-22T06:36:00;29.07;;;16.43;;
4434;SDS011;46552;52.150;8.428;2023-06-22T06:38:28;23.40;;;17.23;;
4434;SDS011;46552;52.150;8.428;2023-06-22T06:40:55;24.37;;;17.73;;
4434;SDS011;46552;52.150;8.428;2023-06-22T06:43:23;24.23;;;18.37;;
4434;SDS011;46552;52.150;8.428;2023-06-22T06:45:50;27.60;;;18.27;;
4434;SDS011;46552;52.150;8.428;2023-06-22T06:48:17;25.77;;;16.90;;
4434;SDS011;46552;52.150;8.428;2023-06-22T06:50:46;21.33;;;14.87;;
4434;SDS011;46552;52.150;8.428;2023-06-22T06:53:13;22.70;;;15.70;;
4434;SDS011;46552;52.150;8.428;2023-06-22T06:55:41;25.10;;;17.20;;
4434;SDS011;46552;52.150;8.428;2023-06-22T06:58:10;26.40;;;18.93;;
4434;SDS011;46552;52.150;8.428;2023-06-22T07:00:38;29.10;;;16.60;;
4434;SDS011;46552;52.150;8.428;2023-06-22T07:03:06;27.27;;;16.90;;
4434;SDS011;46552;52.150;8.428;2023-06-22T07:05:33;21.37;;;14.53;;
4434;SDS011;46552;52.150;8.428;2023-06-22T07:08:04;27.63;;;17.70;;
4434;SDS011;46552;52.150;8.428;2023-06-22T07:10:31;23.03;;;17.17;;
4434;SDS011;46552;52.150;8.428;2023-06-22T07:12:58;24.23;;;17.20;;
4434;SDS011;46552;52.150;8.428;2023-06-22T07:15:26;19.87;;;16.27;;
4434;SDS011;46552;52.150;8.428;2023-06-22T07:17:53;21.50;;;16.10;;
4434;SDS011;46552;52.150;8.428;2023-06-22T07:20:21;27.47;;;16.40;;
4434;SDS011;46552;52.150;8.428;2023-06-22T07:22:49;22.67;;;15.53;;
4434;SDS011;46552;52.150;8.428;2023-06-22T07:25:17;24.50;;;15.80;;
4434;SDS011;46552;52.150;8.428;2023-06-22T07:27:45;22.07;;;16.87;;
4434;SDS011;46552;52.150;8.428;2023-06-22T07:30:14;22.20;;;15.37;;
4434;SDS011;46552;52.150;8.428;2023-06-22T07:32:43;28.03;;;17.20;;
4434;SDS011;46552;52.150;8.428;2023-06-22T07:35:10;21.67;;;16.63;;
4434;SDS011;46552;52.150;8.428;2023-06-22T07:37:37;25.37;;;18.37;;
4434;SDS011;46552;52.150;8.428;2023-06-22T07:40:05;24.03;;;17.23;;
4434;SDS011;46552;52.150;8.428;2023-06-22T07:42:35;27.10;;;17.33;;
4434;SDS011;46552;52.150;8.428;2023-06-22T07:45:02;25.30;;;17.73;;
4434;SDS011;46552;52.150;8.428;2023-06-22T07:47:31;24.03;;;18.07;;
4434;SDS011;46552;52.150;8.428;2023-06-22T07:50:00;33.97;;;19.90;;
4434;SDS011;46552;52.150;8.428;2023-06-22T07:52:28;28.40;;;17.70;;
4434;SDS011;46552;52.150;8.428;2023-06-22T07:54:55;27.00;;;18.30;;
4434;SDS011;46552;52.150;8.428;2023-06-22T07:57:24;23.63;;;16.83;;
4434;SDS011;46552;52.150;8.428;2023-06-22T07:59:59;26.33;;;16.73;;
4434;SDS011;46552;52.150;8.428;2023-06-22T08:02:29;31.10;;;16.70;;
4434;SDS011;46552;52.150;8.428;2023-06-22T08:04:56;25.30;;;17.63;;
4434;SDS011;46552;52.150;8.428;2023-06-22T08:07:23;23.67;;;17.13;;
4434;SDS011;46552;52.150;8.428;2023-06-22T08:09:50;24.17;;;16.17;;
4434;SDS011;46552;52.150;8.428;2023-06-22T08:12:18;26.70;;;18.30;;
4434;SDS011;46552;52.150;8.428;2023-06-22T08:14:46;21.70;;;16.80;;
4434;SDS011;46552;52.150;8.428;2023-06-22T08:17:14;25.17;;;16.17;;
4434;SDS011;46552;52.150;8.428;2023-06-22T08:19:42;24.30;;;17.20;;
4434;SDS011;46552;52.150;8.428;2023-06-22T08:22:09;23.07;;;17.20;;
4434;SDS011;46552;52.150;8.428;2023-06-22T08:24:36;21.20;;;16.30;;
4434;SDS011;46552;52.150;8.428;2023-06-22T08:27:06;25.50;;;17.87;;
4434;SDS011;46552;52.150;8.428;2023-06-22T08:29:36;21.97;;;16.50;;
4434;SDS011;46552;52.150;8.428;2023-06-22T08:32:04;23.63;;;14.77;;
4434;SDS011;46552;52.150;8.428;2023-06-22T08:34:33;26.20;;;18.93;;
4434;SDS011;46552;52.150;8.428;2023-06-22T08:37:00;23.27;;;17.90;;
4434;SDS011;46552;52.150;8.428;2023-06-22T08:39:31;22.50;;;16.90;;
4434;SDS011;46552;52.150;8.428;2023-06-22T08:41:58;37.17;;;17.80;;
4434;SDS011;46552;52.150;8.428;2023-06-22T08:44:26;23.33;;;18.40;;
4434;SDS011;46552;52.150;8.428;2023-06-22T08:46:54;28.40;;;19.30;;
4434;SDS011;46552;52.150;8.428;2023-06-22T08:49:21;24.07;;;16.13;;
4434;SDS011;46552;52.150;8.428;2023-06-22T08:51:50;25.60;;;18.00;;
4434;SDS011;46552;52.150;8.428;2023-06-22T08:54:19;33.23;;;19.03;;
4434;SDS011;46552;52.150;8.428;2023-06-22T08:59:39;25.60;;;18.83;;
4434;SDS011;46552;52.150;8.428;2023-06-22T09:02:06;28.03;;;17.20;;
4434;SDS011;46552;52.150;8.428;2023-06-22T09:04:33;24.20;;;16.00;;
4434;SDS011;46552;52.150;8.428;2023-06-22T09:07:02;26.60;;;16.57;;
4434;SDS011;46552;52.150;8.428;2023-06-22T09:09:30;18.67;;;14.77;;
4434;SDS011;46552;52.150;8.428;2023-06-22T09:11:57;22.90;;;15.33;;
4434;SDS011;46552;52.150;8.428;2023-06-22T09:14:24;23.87;;;16.53;;
4434;SDS011;46552;52.150;8.428;2023-06-22T09:16:52;20.90;;;15.23;;
4434;SDS011;46552;52.150;8.428;2023-06-22T09:19:19;23.47;;;13.67;;
4434;SDS011;46552;52.150;8.428;2023-06-22T09:21:47;21.93;;;16.07;;
4434;SDS011;46552;52.150;8.428;2023-06-22T09:24:16;20.23;;;13.90;;
4434;SDS011;46552;52.150;8.428;2023-06-22T09:26:43;20.20;;;14.63;;
4434;SDS011;46552;52.150;8.428;2023-06-22T09:29:10;23.63;;;13.70;;
4434;SDS011;46552;52.150;8.428;2023-06-22T09:31:37;26.20;;;15.03;;
4434;SDS011;46552;52.150;8.428;2023-06-22T09:34:04;22.00;;;14.87;;
4434;SDS011;46552;52.150;8.428;2023-06-22T09:36:32;17.70;;;13.47;;
4434;SDS011;46552;52.150;8.428;2023-06-22T09:39:00;16.63;;;12.13;;
4434;SDS011;46552;52.150;8.428;2023-06-22T09:41:32;21.93;;;15.23;;
4434;SDS011;46552;52.150;8.428;2023-06-22T09:43:59;20.40;;;14.30;;
4434;SDS011;46552;52.150;8.428;2023-06-22T09:46:27;19.50;;;14.20;;
4434;SDS011;46552;52.150;8.428;2023-06-22T09:48:54;26.40;;;18.00;;
4434;SDS011;46552;52.150;8.428;2023-06-22T09:51:22;20.73;;;15.17;;
4434;SDS011;46552;52.150;8.428;2023-06-22T09:53:49;17.13;;;14.07;;
4434;SDS011;46552;52.150;8.428;2023-06-22T09:56:16;20.57;;;14.77;;
4434;SDS011;46552;52.150;8.428;2023-06-22T09:58:45;19.50;;;13.37;;
4434;SDS011;46552;52.150;8.428;2023-06-22T10:01:15;18.70;;;11.87;;
4434;SDS011;46552;52.150;8.428;2023-06-22T10:03:42;20.10;;;15.10;;
4434;SDS011;46552;52.150;8.428;2023-06-22T10:06:10;21.30;;;15.17;;
4434;SDS011;46552;52.150;8.428;2023-06-22T10:08:37;23.57;;;13.70;;
4434;SDS011;46552;52.150;8.428;2023-06-22T10:11:04;15.80;;;11.83;;
4434;SDS011;46552;52.150;8.428;2023-06-22T10:13:31;16.90;;;13.17;;
4434;SDS011;46552;52.150;8.428;2023-06-22T10:16:01;19.90;;;14.13;;
4434;SDS011;46552;52.150;8.428;2023-06-22T10:18:28;21.63;;;14.50;;
4434;SDS011;46552;52.150;8.428;2023-06-22T10:20:55;18.80;;;15.40;;
4434;SDS011;46552;52.150;8.428;2023-06-22T10:23:24;19.93;;;15.20;;
4434;SDS011;46552;52.150;8.428;2023-06-22T10:25:51;18.87;;;13.33;;
4434;SDS011;46552;52.150;8.428;2023-06-22T10:28:18;14.90;;;11.33;;
4434;SDS011;46552;52.150;8.428;2023-06-22T10:30:46;20.07;;;12.67;;
4434;SDS011;46552;52.150;8.428;2023-06-22T10:33:14;18.37;;;14.87;;
4434;SDS011;46552;52.150;8.428;2023-06-22T10:35:41;14.80;;;10.80;;
4434;SDS011;46552;52.150;8.428;2023-06-22T10:38:08;15.23;;;10.10;;
4434;SDS011;46552;52.150;8.428;2023-06-22T10:40:36;18.20;;;13.70;;
4434;SDS011;46552;52.150;8.428;2023-06-22T10:43:04;19.67;;;13.17;;
4434;SDS011;46552;52.150;8.428;2023-06-22T10:45:31;16.50;;;12.70;;
4434;SDS011;46552;52.150;8.428;2023-06-22T10:47:59;17.80;;;12.60;;
4434;SDS011;46552;52.150;8.428;2023-06-22T10:50:27;15.13;;;10.73;;
4434;SDS011;46552;52.150;8.428;2023-06-22T10:52:54;13.13;;;8.87;;
4434;SDS011;46552;52.150;8.428;2023-06-22T10:55:22;14.50;;;11.60;;
4434;SDS011;46552;52.150;8.428;2023-06-22T10:57:49;15.37;;;12.33;;
4434;SDS011;46552;52.150;8.428;2023-06-22T11:00:17;15.50;;;12.07;;
4434;SDS011;46552;52.150;8.428;2023-06-22T11:02:44;14.20;;;10.93;;
4434;SDS011;46552;52.150;8.428;2023-06-22T11:05:12;16.83;;;10.10;;
4434;SDS011;46552;52.150;8.428;2023-06-22T11:07:42;18.43;;;10.43;;
4434;SDS011;46552;52.150;8.428;2023-06-22T11:10:10;17.17;;;9.93;;
4434;SDS011;46552;52.150;8.428;2023-06-22T11:12:37;16.73;;;11.10;;
4434;SDS011;46552;52.150;8.428;2023-06-22T11:15:04;18.33;;;12.97;;
4434;SDS011;46552;52.150;8.428;2023-06-22T11:17:32;16.13;;;10.90;;
4434;SDS011;46552;52.150;8.428;2023-06-22T11:20:00;12.40;;;9.90;;
4434;SDS011;46552;52.150;8.428;2023-06-22T11:22:29;18.50;;;11.37;;
4434;SDS011;46552;52.150;8.428;2023-06-22T11:25:00;14.37;;;11.20;;
4434;SDS011;46552;52.150;8.428;2023-06-22T11:27:28;11.07;;;9.70;;
4434;SDS011;46552;52.150;8.428;2023-06-22T11:29:55;13.83;;;10.80;;
4434;SDS011;46552;52.150;8.428;2023-06-22T11:32:23;14.83;;;11.77;;
4434;SDS011;46552;52.150;8.428;2023-06-22T11:34:50;15.60;;;12.17;;
4434;SDS011;46552;52.150;8.428;2023-06-22T11:37:18;18.17;;;11.80;;
4434;SDS011;46552;52.150;8.428;2023-06-22T11:39:45;15.33;;;10.53;;
4434;SDS011;46552;52.150;8.428;2023-06-22T11:42:14;12.50;;;9.20;;
4434;SDS011;46552;52.150;8.428;2023-06-22T11:44:41;11.43;;;9.70;;
4434;SDS011;46552;52.150;8.428;2023-06-22T11:47:09;11.37;;;9.53;;
4434;SDS011;46552;52.150;8.428;2023-06-22T11:49:37;13.93;;;10.43;;
4434;SDS011;46552;52.150;8.428;2023-06-22T11:52:05;17.10;;;11.60;;
4434;SDS011;46552;52.150;8.428;2023-06-22T11:54:32;13.60;;;10.60;;
4434;SDS011;46552;52.150;8.428;2023-06-22T11:57:00;16.10;;;11.93;;
4434;SDS011;46552;52.150;8.428;2023-06-22T11:59:28;18.00;;;12.87;;
4434;SDS011;46552;52.150;8.428;2023-06-22T12:01:57;13.83;;;11.50;;
4434;SDS011;46552;52.150;8.428;2023-06-22T12:04:25;16.57;;;12.80;;
4434;SDS011;46552;52.150;8.428;2023-06-22T12:06:53;13.80;;;11.60;;
4434;SDS011;46552;52.150;8.428;2023-06-22T12:09:20;15.17;;;11.37;;
4434;SDS011;46552;52.150;8.428;2023-06-22T12:11:48;14.63;;;10.90;;
4434;SDS011;46552;52.150;8.428;2023-06-22T12:14:15;15.13;;;12.50;;
4434;SDS011;46552;52.150;8.428;2023-06-22T12:16:44;18.33;;;11.20;;
4434;SDS011;46552;52.150;8.428;2023-06-22T12:19:11;15.83;;;13.30;;
4434;SDS011;46552;52.150;8.428;2023-06-22T12:21:38;16.33;;;12.83;;
4434;SDS011;46552;52.150;8.428;2023-06-22T12:24:05;15.37;;;11.17;;
4434;SDS011;46552;52.150;8.428;2023-06-22T12:26:33;15.83;;;12.63;;
4434;SDS011;46552;52.150;8.428;2023-06-22T12:29:00;16.97;;;11.77;;
4434;SDS011;46552;52.150;8.428;2023-06-22T12:31:27;13.20;;;11.43;;
4434;SDS011;46552;52.150;8.428;2023-06-22T12:33:55;11.80;;;9.93;;
4434;SDS011;46552;52.150;8.428;2023-06-22T12:36:23;14.57;;;11.93;;
4434;SDS011;46552;52.150;8.428;2023-06-22T12:38:50;12.43;;;11.13;;
4434;SDS011;46552;52.150;8.428;2023-06-22T12:41:18;11.50;;;9.40;;
4434;SDS011;46552;52.150;8.428;2023-06-22T12:43:46;12.83;;;10.20;;
4434;SDS011;46552;52.150;8.428;2023-06-22T12:46:14;12.43;;;10.53;;
4434;SDS011;46552;52.150;8.428;2023-06-22T12:48:41;25.70;;;11.03;;
4434;SDS011;46552;52.150;8.428;2023-06-22T12:51:11;13.83;;;10.77;;
4434;SDS011;46552;52.150;8.428;2023-06-22T12:53:39;15.10;;;11.50;;
4434;SDS011;46552;52.150;8.428;2023-06-22T12:56:08;19.83;;;13.03;;
4434;SDS011;46552;52.150;8.428;2023-06-22T12:58:35;15.60;;;11.43;;
4434;SDS011;46552;52.150;8.428;2023-06-22T13:01:02;15.40;;;10.70;;
4434;SDS011;46552;52.150;8.428;2023-06-22T13:03:30;27.93;;;13.70;;
4434;SDS011;46552;52.150;8.428;2023-06-22T13:05:57;18.67;;;10.90;;
4434;SDS011;46552;52.150;8.428;2023-06-22T13:08:26;15.20;;;12.27;;
4434;SDS011;46552;52.150;8.428;2023-06-22T13:10:54;17.87;;;12.57;;
4434;SDS011;46552;52.150;8.428;2023-06-22T13:13:23;16.47;;;11.50;;
4434;SDS011;46552;52.150;8.428;2023-06-22T13:15:50;19.93;;;12.47;;
4434;SDS011;46552;52.150;8.428;2023-06-22T13:18:19;18.73;;;13.30;;
4434;SDS011;46552;52.150;8.428;2023-06-22T13:20:46;22.20;;;12.77;;
4434;SDS011;46552;52.150;8.428;2023-06-22T13:23:13;18.53;;;13.17;;
4434;SDS011;46552;52.150;8.428;2023-06-22T13:25:42;16.13;;;13.10;;
4434;SDS011;46552;52.150;8.428;2023-06-22T13:28:09;19.63;;;14.17;;
4434;SDS011;46552;52.150;8.428;2023-06-22T13:30:38;24.77;;;13.20;;
4434;SDS011;46552;52.150;8.428;2023-06-22T13:33:06;17.80;;;13.70;;
4434;SDS011;46552;52.150;8.428;2023-06-22T13:35:34;27.20;;;15.50;;
4434;SDS011;46552;52.150;8.428;2023-06-22T13:38:01;20.43;;;14.60;;
4434;SDS011;46552;52.150;8.428;2023-06-22T13:40:28;17.97;;;13.97;;
4434;SDS011;46552;52.150;8.428;2023-06-22T13:42:57;20.93;;;14.20;;
4434;SDS011;46552;52.150;8.428;2023-06-22T13:45:25;24.43;;;14.43;;
4434;SDS011;46552;52.150;8.428;2023-06-22T13:47:53;21.57;;;14.53;;
4434;SDS011;46552;52.150;8.428;2023-06-22T13:50:20;21.80;;;15.97;;
4434;SDS011;46552;52.150;8.428;2023-06-22T13:52:48;17.83;;;14.60;;
4434;SDS011;46552;52.150;8.428;2023-06-22T13:55:15;19.10;;;15.33;;
4434;SDS011;46552;52.150;8.428;2023-06-22T13:57:42;25.87;;;14.87;;
4434;SDS011;46552;52.150;8.428;2023-06-22T14:00:12;24.87;;;15.60;;
4434;SDS011;46552;52.150;8.428;2023-06-22T14:02:39;22.53;;;16.47;;
4434;SDS011;46552;52.150;8.428;2023-06-22T14:05:07;30.10;;;17.30;;
4434;SDS011;46552;52.150;8.428;2023-06-22T14:07:36;24.27;;;15.93;;
4434;SDS011;46552;52.150;8.428;2023-06-22T14:10:04;28.87;;;16.87;;
4434;SDS011;46552;52.150;8.428;2023-06-22T14:12:31;27.37;;;15.97;;
4434;SDS011;46552;52.150;8.428;2023-06-22T14:14:59;27.17;;;17.27;;
4434;SDS011;46552;52.150;8.428;2023-06-22T14:17:28;38.47;;;21.87;;
4434;SDS011;46552;52.150;8.428;2023-06-22T14:19:55;24.23;;;17.80;;
4434;SDS011;46552;52.150;8.428;2023-06-22T14:22:22;21.17;;;16.10;;
4434;SDS011;46552;52.150;8.428;2023-06-22T14:24:49;24.57;;;18.27;;
4434;SDS011;46552;52.150;8.428;2023-06-22T14:27:17;25.47;;;17.90;;
4434;SDS011;46552;52.150;8.428;2023-06-22T14:29:44;28.47;;;17.67;;
4434;SDS011;46552;52.150;8.428;2023-06-22T14:32:11;27.83;;;17.57;;
4434;SDS011;46552;52.150;8.428;2023-06-22T14:34:40;22.37;;;15.90;;
4434;SDS011;46552;52.150;8.428;2023-06-22T14:37:08;23.00;;;14.17;;
4434;SDS011;46552;52.150;8.428;2023-06-22T14:39:36;22.77;;;17.40;;
4434;SDS011;46552;52.150;8.428;2023-06-22T14:42:04;24.63;;;15.20;;
4434;SDS011;46552;52.150;8.428;2023-06-22T14:44:32;23.70;;;16.13;;